Ages, Kentucky
Current Conditions -  °F | °C
As of 3:15 AM on Monday 24 Nov 2014 (Local Time) from KI35 Reporting Station
Overcast Overcast  
Wind Chill: 61°   Ceiling: 2600
Heat Index: 61°   Visibility: 10mi
Dew Point: 52°   Wind: 10mph
Humidity: 72%   Direction: 200°SSW
Pressure: 29.59"   Gusts: 16mph
Location:  36.8576°N, 83.2467°W
Report Text: KI35 240815Z AUTO 20009G14KT 130V250 10SM OVC026 16/11 A2959 RMK AO1
Loading
Personal Weather Stations






























Interactive Weather Map New forecast layout! Learn more

10-Day Weather Forecast

Advertisements
Track Severe Weather on mobile